Luminous Kobe-2 — JJ3868 — position and weather

sailwx.info

Track history (hours):
 
Tides and Currents Weather Stations Pressure Air Temp Water Temp Dewpoint Dewpoint Depression Visibility Wind Speed Wind Dir Waves Ship Positions

Luminous Kobe-2

Last reported at 2015-Mar-06 23:33 UTC. Time now 2015-Mar-07 00:07 UTC.
Position N 34°41' E 135°11'.

Length 105 m; draft 4.5 m.

Type: Passenger vessel. MMSI: 431000469.

Date/timePositionNaut miles runAvg speedWind from/ knotsBaromVisibWave heightAir tempDewpointWater temp
2015-Mar-06 23:33N 34°41' E 135°11'0 0.0
2015-Mar-06 22:33N 34°41' E 135°11'0 0.0
2015-Mar-06 21:27N 34°41' E 135°11'0 0.0
2015-Mar-06 20:27N 34°41' E 135°11'0 0.0
2015-Mar-06 19:33N 34°41' E 135°11'0 0.0
2015-Mar-06 18:33N 34°41' E 135°11'0 0.0
2015-Mar-06 17:33N 34°41' E 135°11'0 0.0
2015-Mar-06 16:33N 34°41' E 135°11'0 0.0
2015-Mar-06 15:33N 34°41' E 135°11'0 0.0
2015-Mar-06 14:33N 34°41' E 135°11'0 0.0
2015-Mar-06 13:27N 34°41' E 135°11'0 0.0
2015-Mar-06 12:33N 34°41' E 135°11'6 6.4
2015-Mar-06 11:33N 34°36' E 135°06'0 0.4
2015-Mar-06 10:33N 34°37' E 135°06'6 6.1
2015-Mar-06 09:33N 34°41' E 135°11'0 0.0
2015-Mar-06 08:33N 34°41' E 135°11'4 4.5
2015-Mar-06 07:33N 34°38' E 135°08'4 3.9
2015-Mar-06 06:24N 34°41' E 135°11'0 0.0
2015-Mar-06 05:30N 34°41' E 135°11'2 2.2
2015-Mar-06 04:32N 34°39' E 135°11'2 2.2
2015-Mar-06 03:33N 34°37' E 135°13'4 4.0
2015-Mar-06 02:33N 34°41' E 135°11'0 0.0
2015-Mar-06 01:22N 34°41' E 135°11'0 0.0
2015-Mar-06 00:28N 34°41' E 135°11'0 0.0
2015-Mar-05 23:28N 34°41' E 135°11'0 0.0
2015-Mar-05 22:28N 34°41' E 135°11'0 0.0
2015-Mar-05 21:22N 34°41' E 135°11'0 0.0
2015-Mar-05 20:22N 34°41' E 135°11'0 0.0
2015-Mar-05 19:28N 34°41' E 135°11'0 0.0
2015-Mar-05 18:34N 34°41' E 135°11'0 0.0
2015-Mar-05 17:22N 34°41' E 135°11'0 0.0
2015-Mar-05 16:28N 34°41' E 135°11'0 0.0
2015-Mar-05 15:34N 34°41' E 135°11'0 0.0
2015-Mar-05 14:34N 34°41' E 135°11'0 0.0
2015-Mar-05 13:34N 34°41' E 135°11'0 0.0
2015-Mar-05 12:34N 34°41' E 135°11'7 7.3
2015-Mar-05 11:33N 34°35' E 135°06'1 1.2
2015-Mar-05 10:33N 34°36' E 135°06'6 6.4
2015-Mar-05 09:33N 34°41' E 135°11'0 0.0
2015-Mar-05 08:31N 34°41' E 135°11'5 5.0
2015-Mar-05 07:33N 34°37' E 135°07'5 4.8
2015-Mar-05 06:33N 34°41' E 135°11'0 0.0
2015-Mar-05 05:33N 34°41' E 135°11'2 2.0
2015-Mar-05 04:33N 34°39' E 135°11'2 2.3
2015-Mar-05 03:33N 34°37' E 135°13'4 3.8
2015-Mar-05 02:33N 34°41' E 135°11'0 0.0
2015-Mar-05 01:33N 34°41' E 135°11'0 0.0
2015-Mar-05 00:33N 34°41' E 135°11'0 0.0
2015-Mar-04 23:33N 34°41' E 135°11'0 0.0
2015-Mar-04 22:33N 34°41' E 135°11'0 0.0
2015-Mar-04 21:33N 34°41' E 135°11'0 0.0
2015-Mar-04 20:33N 34°41' E 135°11'0 0.0
2015-Mar-04 19:30N 34°41' E 135°11'0 0.0
2015-Mar-04 18:30N 34°41' E 135°11'0 0.0
2015-Mar-04 17:30N 34°41' E 135°11'0 0.0
2015-Mar-04 16:30N 34°41' E 135°11'0 0.0
2015-Mar-04 15:30N 34°41' E 135°11'0 0.0
2015-Mar-04 14:30N 34°41' E 135°11'0 0.0
2015-Mar-04 13:30N 34°41' E 135°11'0 0.0
2015-Mar-04 12:33N 34°41' E 135°11'6 5.9
2015-Mar-04 11:33N 34°36' E 135°07'1 0.9
2015-Mar-04 10:34N 34°36' E 135°06'6 5.3
2015-Mar-04 09:25N 34°41' E 135°11'0 0.0
2015-Mar-04 08:31N 34°41' E 135°11'5 4.8
2015-Mar-04 07:34N 34°37' E 135°08'5 4.4
2015-Mar-04 06:31N 34°41' E 135°11'0 0.0
2015-Mar-04 05:31N 34°41' E 135°11'1 1.5
2015-Mar-04 04:33N 34°39' E 135°11'3 2.7
2015-Mar-04 03:33N 34°37' E 135°13'4 3.9
2015-Mar-04 02:32N 34°41' E 135°11'0 0.0
2015-Mar-04 01:32N 34°41' E 135°11'0 0.0
2015-Mar-04 00:32N 34°41' E 135°11'0 0.0
2015-Mar-03 23:26N 34°41' E 135°11'0 0.0
2015-Mar-03 22:20N 34°41' E 135°11'0 0.0
2015-Mar-03 21:32N 34°41' E 135°11'0 0.0
2015-Mar-03 20:32N 34°41' E 135°11'0 0.0
2015-Mar-03 19:32N 34°41' E 135°11'0 0.0
2015-Mar-03 18:32N 34°41' E 135°11'0 0.0
2015-Mar-03 17:32N 34°41' E 135°11'0 0.0
2015-Mar-03 16:26N 34°41' E 135°11'0 0.0
2015-Mar-03 15:32N 34°41' E 135°11'0 0.0
2015-Mar-03 14:32N 34°41' E 135°11'0 0.0
2015-Mar-03 13:32N 34°41' E 135°11'0 0.0
2015-Mar-03 12:32N 34°41' E 135°11'7 6.8
2015-Mar-03 11:33N 34°36' E 135°06'1 1.1
2015-Mar-03 10:33N 34°37' E 135°06'6 6.1
2015-Mar-03 09:31N 34°41' E 135°11'0 0.0
2015-Mar-03 08:30N 34°41' E 135°11'5 5.0
2015-Mar-03 07:33N 34°38' E 135°07'5 4.6
2015-Mar-03 06:32N 34°41' E 135°11'0 0.0
2015-Mar-03 05:32N 34°41' E 135°11'2 2.1
2015-Mar-03 04:34N 34°39' E 135°11'2 2.1
2015-Mar-03 03:33N 34°37' E 135°13'4 3.6
2015-Mar-03 02:32N 34°41' E 135°11'0 0.0
2015-Mar-03 01:32N 34°41' E 135°11'0 0.0
2015-Mar-03 00:32N 34°41' E 135°11'0 0.0
2015-Mar-02 23:32N 34°41' E 135°11'0 0.0
2015-Mar-02 22:32N 34°41' E 135°11'0 0.0
2015-Mar-02 21:32N 34°41' E 135°11'0 0.0
2015-Mar-02 20:32N 34°41' E 135°11'0 0.0
2015-Mar-02 19:32N 34°41' E 135°11'0 0.0
2015-Mar-02 18:32N 34°41' E 135°11'0 0.0
2015-Mar-02 17:32N 34°41' E 135°11'0 0.0
2015-Mar-02 16:32N 34°41' E 135°11'0 0.0
2015-Mar-02 15:32N 34°41' E 135°11'0 0.0
2015-Mar-02 14:32N 34°41' E 135°11'0 0.0
2015-Mar-02 13:32N 34°41' E 135°11'0 0.0
2015-Mar-02 12:32N 34°41' E 135°11'6 6.1
2015-Mar-02 11:33N 34°36' E 135°07'1 0.8
2015-Mar-02 10:34N 34°37' E 135°06'6 5.1
2015-Mar-02 09:21N 34°41' E 135°11'0 0.0
2015-Mar-02 08:33N 34°41' E 135°11'4 4.2
2015-Mar-02 07:33N 34°38' E 135°08'4 4.0
2015-Mar-02 06:31N 34°41' E 135°11'0 0.0
2015-Mar-02 05:19N 34°41' E 135°11'2 2.2
2015-Mar-02 04:33N 34°39' E 135°11'3 2.7
2015-Mar-02 03:33N 34°37' E 135°13'4 3.5
2015-Mar-02 02:20N 34°41' E 135°11'0 0.0
2015-Mar-02 01:31N 34°41' E 135°11'0 0.0
2015-Mar-02 00:25N 34°41' E 135°11'0 0.0
2015-Mar-01 23:31N 34°41' E 135°11'0 0.0
2015-Mar-01 22:31N 34°41' E 135°11'0 0.0
2015-Mar-01 21:31N 34°41' E 135°11'0 0.0
2015-Mar-01 20:31N 34°41' E 135°11'0 0.0
2015-Mar-01 19:31N 34°41' E 135°11'0 0.0
2015-Mar-01 18:31N 34°41' E 135°11'0 0.0
2015-Mar-01 17:31N 34°41' E 135°11'0 0.0
2015-Mar-01 16:31N 34°41' E 135°11'0 0.0
2015-Mar-01 15:31N 34°41' E 135°11'0 0.0
2015-Mar-01 14:31N 34°41' E 135°11'0 0.0
2015-Mar-01 13:31N 34°41' E 135°11'0 0.0
2015-Mar-01 12:31N 34°41' E 135°11'6 5.9
2015-Mar-01 11:33N 34°36' E 135°07'1 1.1
2015-Mar-01 10:34N 34°36' E 135°06'6 6.4
2015-Mar-01 09:33N 34°41' E 135°11'2 1.9
2015-Mar-01 08:34N 34°39' E 135°11'2 2.1
2015-Mar-01 07:33N 34°38' E 135°13'4 3.7
2015-Mar-01 06:33N 34°41' E 135°11'0 0.0
2015-Mar-01 05:33N 34°41' E 135°11'2 2.2
2015-Mar-01 04:33N 34°39' E 135°11'2 2.2
2015-Mar-01 03:33N 34°37' E 135°13'4 3.7
2015-Mar-01 02:32N 34°41' E 135°11'0 0.0
2015-Mar-01 01:26N 34°41' E 135°11'0 0.0
2015-Mar-01 00:32N 34°41' E 135°11'0 0.0
2015-Feb-28 23:26N 34°41' E 135°11'0 0.0
2015-Feb-28 22:32N 34°41' E 135°11'0 0.0
2015-Feb-28 21:32N 34°41' E 135°11'0 0.0
2015-Feb-28 20:32N 34°41' E 135°11'0 0.0
2015-Feb-28 19:32N 34°41' E 135°11'0 0.0
2015-Feb-28 18:32N 34°41' E 135°11'0 0.0
2015-Feb-28 17:32N 34°41' E 135°11'0 0.0
2015-Feb-28 16:32N 34°41' E 135°11'0 0.0
2015-Feb-28 15:32N 34°41' E 135°11'0 0.0
2015-Feb-28 14:32N 34°41' E 135°11'0 0.0
2015-Feb-28 13:32N 34°41' E 135°11'0 0.0
2015-Feb-28 12:32N 34°41' E 135°11'6 6.1
2015-Feb-28 11:33N 34°36' E 135°07'1 1.1
2015-Feb-28 10:33N 34°37' E 135°06'6 5.9
2015-Feb-28 09:32N 34°41' E 135°11'2 1.6
2015-Feb-28 08:33N 34°39' E 135°11'3 2.5
2015-Feb-28 07:33N 34°37' E 135°13'4 3.8
2015-Feb-28 06:33N 34°41' E 135°11'0 0.0
2015-Feb-28 05:33N 34°41' E 135°11'2 2.1
2015-Feb-28 04:33N 34°39' E 135°11'2 2.1
2015-Feb-28 03:33N 34°37' E 135°13'4 3.7
2015-Feb-28 02:33N 34°41' E 135°11'0 0.0
2015-Feb-28 01:31N 34°41' E 135°11'0 0.0
2015-Feb-28 00:31N 34°41' E 135°11'0 0.0
2015-Feb-27 23:31N 34°41' E 135°11'0 0.0
2015-Feb-27 22:31N 34°41' E 135°11'0 0.0
2015-Feb-27 21:31N 34°41' E 135°11'0 0.0
2015-Feb-27 20:31N 34°41' E 135°11'0 0.0
2015-Feb-27 19:31N 34°41' E 135°11'0 0.0
2015-Feb-27 18:31N 34°41' E 135°11'0 0.0
2015-Feb-27 17:31N 34°41' E 135°11'0 0.0
2015-Feb-27 16:31N 34°41' E 135°11'0 0.0
2015-Feb-27 15:31N 34°41' E 135°11'0 0.0
2015-Feb-27 14:31N 34°41' E 135°11'0 0.0
2015-Feb-27 13:31N 34°41' E 135°11'0 0.0
2015-Feb-27 12:26N 34°41' E 135°11'6 7.0
2015-Feb-27 11:33N 34°36' E 135°07'1 0.6
2015-Feb-27 10:34N 34°36' E 135°06'6 6.0
2015-Feb-27 09:31N 34°41' E 135°11'5 5.0
2015-Feb-27 08:33N 34°37' E 135°08'5 4.6
2015-Feb-27 07:29N 34°41' E 135°11'0 0.0
2015-Feb-27 06:29N 34°41' E 135°11'0 0.0
2015-Feb-27 05:23N 34°41' E 135°11'2 2.4
2015-Feb-27 04:33N 34°39' E 135°11'3 2.6
2015-Feb-27 03:33N 34°37' E 135°13'4 4.3
2015-Feb-27 02:33N 34°41' E 135°11'0 0.0
2015-Feb-27 01:30N 34°41' E 135°11'0 0.0
2015-Feb-27 00:30N 34°41' E 135°11'0 0.0
2015-Feb-26 23:30N 34°41' E 135°11'0 0.0
2015-Feb-26 22:24N 34°41' E 135°11'0 0.0
2015-Feb-26 21:30N 34°41' E 135°11'0 0.0
2015-Feb-26 20:30N 34°41' E 135°11'0 0.0
2015-Feb-26 19:30N 34°41' E 135°11'0 0.0
2015-Feb-26 18:30N 34°41' E 135°11'0 0.0
2015-Feb-26 17:30N 34°41' E 135°11'0 0.0
2015-Feb-26 16:30N 34°41' E 135°11'0 0.0
2015-Feb-26 15:30N 34°41' E 135°11'0 0.0
2015-Feb-26 14:24N 34°41' E 135°11'0 0.0
2015-Feb-26 13:30N 34°41' E 135°11'0 0.0
2015-Feb-26 12:30N 34°41' E 135°11'6 6.5
2015-Feb-26 11:33N 34°36' E 135°07'1 0.9
2015-Feb-26 10:33N 34°37' E 135°06'6 4.7
2015-Feb-26 09:17N 34°41' E 135°11'0 0.0
2015-Feb-26 08:33N 34°41' E 135°11'4 4.4
2015-Feb-26 07:33N 34°38' E 135°08'4 4.2
2015-Feb-26 06:30N 34°41' E 135°11'0 0.0
2015-Feb-26 05:30N 34°41' E 135°11'2 2.3
2015-Feb-26 04:33N 34°39' E 135°11'2 1.6
2015-Feb-26 03:33N 34°37' E 135°12'3 3.5
2015-Feb-26 02:33N 34°41' E 135°11'0 0.0
2015-Feb-26 01:22N 34°41' E 135°11'0 0.0
2015-Feb-26 00:28N 34°41' E 135°11'0 0.0
2015-Feb-25 23:22N 34°41' E 135°11'0 0.0
2015-Feb-25 22:28N 34°41' E 135°11'0 0.0
2015-Feb-25 21:28N 34°41' E 135°11'0 0.0
2015-Feb-25 20:28N 34°41' E 135°11'0 0.0
2015-Feb-25 19:28N 34°41' E 135°11'0 0.0
2015-Feb-25 18:28N 34°41' E 135°11'0 0.0
2015-Feb-25 17:22N 34°41' E 135°11'0 0.0
2015-Feb-25 16:28N 34°41' E 135°11'0 0.0
2015-Feb-25 15:28N 34°41' E 135°11'0 0.0
2015-Feb-25 14:28N 34°41' E 135°11'0 0.0
2015-Feb-25 13:28N 34°41' E 135°11'0 0.0
2015-Feb-25 12:28N 34°41' E 135°11'7 7.2
2015-Feb-25 11:33N 34°36' E 135°07'1 0.7
2015-Feb-25 10:33N 34°36' E 135°06'6 6.0
2015-Feb-25 09:33N 34°41' E 135°11'0 0.0
2015-Feb-25 08:33N 34°41' E 135°11'5 4.6
2015-Feb-25 07:33N 34°38' E 135°08'5 4.3
2015-Feb-25 06:30N 34°41' E 135°11'0 0.0
2015-Feb-25 05:30N 34°41' E 135°11'2 2.2
2015-Feb-25 04:34N 34°39' E 135°11'2 2.1
2015-Feb-25 03:33N 34°38' E 135°13'4 2.8
2015-Feb-25 02:17N 34°41' E 135°11'0 0.0
2015-Feb-25 01:29N 34°41' E 135°11'0 0.0
2015-Feb-25 00:29N 34°41' E 135°11'  
Track history (hours):
 
Tides and Currents Weather Stations Pressure Air Temp Water Temp Dewpoint Dewpoint Depression Visibility Wind Speed Wind Dir Waves Ship Positions

Luminous Kobe-2

Last reported at 2015-Mar-06 23:33 UTC. Time now 2015-Mar-07 00:07 UTC.
Position N 34°41' E 135°11'.

Length 105 m; draft 4.5 m.

Type: Passenger vessel. MMSI: 431000469.

Date/timePositionNaut miles runAvg speedWind from/ knotsBaromVisibWave heightAir tempDewpointWater temp
2015-Mar-06 23:33N 34°41' E 135°11'0 0.0
2015-Mar-06 22:33N 34°41' E 135°11'0 0.0
2015-Mar-06 21:27N 34°41' E 135°11'0 0.0
2015-Mar-06 20:27N 34°41' E 135°11'0 0.0
2015-Mar-06 19:33N 34°41' E 135°11'0 0.0
2015-Mar-06 18:33N 34°41' E 135°11'0 0.0
2015-Mar-06 17:33N 34°41' E 135°11'0 0.0
2015-Mar-06 16:33N 34°41' E 135°11'0 0.0
2015-Mar-06 15:33N 34°41' E 135°11'0 0.0
2015-Mar-06 14:33N 34°41' E 135°11'0 0.0
2015-Mar-06 13:27N 34°41' E 135°11'0 0.0
2015-Mar-06 12:33N 34°41' E 135°11'6 6.4
2015-Mar-06 11:33N 34°36' E 135°06'0 0.4
2015-Mar-06 10:33N 34°37' E 135°06'6 6.1
2015-Mar-06 09:33N 34°41' E 135°11'0 0.0
2015-Mar-06 08:33N 34°41' E 135°11'4 4.5
2015-Mar-06 07:33N 34°38' E 135°08'4 3.9
2015-Mar-06 06:24N 34°41' E 135°11'0 0.0
2015-Mar-06 05:30N 34°41' E 135°11'2 2.2
2015-Mar-06 04:32N 34°39' E 135°11'2 2.2
2015-Mar-06 03:33N 34°37' E 135°13'4 4.0
2015-Mar-06 02:33N 34°41' E 135°11'0 0.0
2015-Mar-06 01:22N 34°41' E 135°11'0 0.0
2015-Mar-06 00:28N 34°41' E 135°11'0 0.0
2015-Mar-05 23:28N 34°41' E 135°11'0 0.0
2015-Mar-05 22:28N 34°41' E 135°11'0 0.0
2015-Mar-05 21:22N 34°41' E 135°11'0 0.0
2015-Mar-05 20:22N 34°41' E 135°11'0 0.0
2015-Mar-05 19:28N 34°41' E 135°11'0 0.0
2015-Mar-05 18:34N 34°41' E 135°11'0 0.0
2015-Mar-05 17:22N 34°41' E 135°11'0 0.0
2015-Mar-05 16:28N 34°41' E 135°11'0 0.0
2015-Mar-05 15:34N 34°41' E 135°11'0 0.0
2015-Mar-05 14:34N 34°41' E 135°11'0 0.0
2015-Mar-05 13:34N 34°41' E 135°11'0 0.0
2015-Mar-05 12:34N 34°41' E 135°11'7 7.3
2015-Mar-05 11:33N 34°35' E 135°06'1 1.2
2015-Mar-05 10:33N 34°36' E 135°06'6 6.4
2015-Mar-05 09:33N 34°41' E 135°11'0 0.0
2015-Mar-05 08:31N 34°41' E 135°11'5 5.0
2015-Mar-05 07:33N 34°37' E 135°07'5 4.8
2015-Mar-05 06:33N 34°41' E 135°11'0 0.0
2015-Mar-05 05:33N 34°41' E 135°11'2 2.0
2015-Mar-05 04:33N 34°39' E 135°11'2 2.3
2015-Mar-05 03:33N 34°37' E 135°13'4 3.8
2015-Mar-05 02:33N 34°41' E 135°11'0 0.0
2015-Mar-05 01:33N 34°41' E 135°11'0 0.0
2015-Mar-05 00:33N 34°41' E 135°11'0 0.0
2015-Mar-04 23:33N 34°41' E 135°11'0 0.0
2015-Mar-04 22:33N 34°41' E 135°11'0 0.0
2015-Mar-04 21:33N 34°41' E 135°11'0 0.0
2015-Mar-04 20:33N 34°41' E 135°11'0 0.0
2015-Mar-04 19:30N 34°41' E 135°11'0 0.0
2015-Mar-04 18:30N 34°41' E 135°11'0 0.0
2015-Mar-04 17:30N 34°41' E 135°11'0 0.0
2015-Mar-04 16:30N 34°41' E 135°11'0 0.0
2015-Mar-04 15:30N 34°41' E 135°11'0 0.0
2015-Mar-04 14:30N 34°41' E 135°11'0 0.0
2015-Mar-04 13:30N 34°41' E 135°11'0 0.0
2015-Mar-04 12:33N 34°41' E 135°11'6 5.9
2015-Mar-04 11:33N 34°36' E 135°07'1 0.9
2015-Mar-04 10:34N 34°36' E 135°06'6 5.3
2015-Mar-04 09:25N 34°41' E 135°11'0 0.0
2015-Mar-04 08:31N 34°41' E 135°11'5 4.8
2015-Mar-04 07:34N 34°37' E 135°08'5 4.4
2015-Mar-04 06:31N 34°41' E 135°11'0 0.0
2015-Mar-04 05:31N 34°41' E 135°11'1 1.5
2015-Mar-04 04:33N 34°39' E 135°11'3 2.7
2015-Mar-04 03:33N 34°37' E 135°13'4 3.9
2015-Mar-04 02:32N 34°41' E 135°11'0 0.0
2015-Mar-04 01:32N 34°41' E 135°11'0 0.0
2015-Mar-04 00:32N 34°41' E 135°11'0 0.0
2015-Mar-03 23:26N 34°41' E 135°11'0 0.0
2015-Mar-03 22:20N 34°41' E 135°11'0 0.0
2015-Mar-03 21:32N 34°41' E 135°11'0 0.0
2015-Mar-03 20:32N 34°41' E 135°11'0 0.0
2015-Mar-03 19:32N 34°41' E 135°11'0 0.0
2015-Mar-03 18:32N 34°41' E 135°11'0 0.0
2015-Mar-03 17:32N 34°41' E 135°11'0 0.0
2015-Mar-03 16:26N 34°41' E 135°11'0 0.0
2015-Mar-03 15:32N 34°41' E 135°11'0 0.0
2015-Mar-03 14:32N 34°41' E 135°11'0 0.0
2015-Mar-03 13:32N 34°41' E 135°11'0 0.0
2015-Mar-03 12:32N 34°41' E 135°11'7 6.8
2015-Mar-03 11:33N 34°36' E 135°06'1 1.1
2015-Mar-03 10:33N 34°37' E 135°06'6 6.1
2015-Mar-03 09:31N 34°41' E 135°11'0 0.0
2015-Mar-03 08:30N 34°41' E 135°11'5 5.0
2015-Mar-03 07:33N 34°38' E 135°07'5 4.6
2015-Mar-03 06:32N 34°41' E 135°11'0 0.0
2015-Mar-03 05:32N 34°41' E 135°11'2 2.1
2015-Mar-03 04:34N 34°39' E 135°11'2 2.1
2015-Mar-03 03:33N 34°37' E 135°13'4 3.6
2015-Mar-03 02:32N 34°41' E 135°11'0 0.0
2015-Mar-03 01:32N 34°41' E 135°11'0 0.0
2015-Mar-03 00:32N 34°41' E 135°11'0 0.0
2015-Mar-02 23:32N 34°41' E 135°11'0 0.0
2015-Mar-02 22:32N 34°41' E 135°11'0 0.0
2015-Mar-02 21:32N 34°41' E 135°11'0 0.0
2015-Mar-02 20:32N 34°41' E 135°11'0 0.0
2015-Mar-02 19:32N 34°41' E 135°11'0 0.0
2015-Mar-02 18:32N 34°41' E 135°11'0 0.0
2015-Mar-02 17:32N 34°41' E 135°11'0 0.0
2015-Mar-02 16:32N 34°41' E 135°11'0 0.0
2015-Mar-02 15:32N 34°41' E 135°11'0 0.0
2015-Mar-02 14:32N 34°41' E 135°11'0 0.0
2015-Mar-02 13:32N 34°41' E 135°11'0 0.0
2015-Mar-02 12:32N 34°41' E 135°11'6 6.1
2015-Mar-02 11:33N 34°36' E 135°07'1 0.8
2015-Mar-02 10:34N 34°37' E 135°06'6 5.1
2015-Mar-02 09:21N 34°41' E 135°11'0 0.0
2015-Mar-02 08:33N 34°41' E 135°11'4 4.2
2015-Mar-02 07:33N 34°38' E 135°08'4 4.0
2015-Mar-02 06:31N 34°41' E 135°11'0 0.0
2015-Mar-02 05:19N 34°41' E 135°11'2 2.2
2015-Mar-02 04:33N 34°39' E 135°11'3 2.7
2015-Mar-02 03:33N 34°37' E 135°13'4 3.5
2015-Mar-02 02:20N 34°41' E 135°11'0 0.0
2015-Mar-02 01:31N 34°41' E 135°11'0 0.0
2015-Mar-02 00:25N 34°41' E 135°11'0 0.0
2015-Mar-01 23:31N 34°41' E 135°11'0 0.0
2015-Mar-01 22:31N 34°41' E 135°11'0 0.0
2015-Mar-01 21:31N 34°41' E 135°11'0 0.0
2015-Mar-01 20:31N 34°41' E 135°11'0 0.0
2015-Mar-01 19:31N 34°41' E 135°11'0 0.0
2015-Mar-01 18:31N 34°41' E 135°11'0 0.0
2015-Mar-01 17:31N 34°41' E 135°11'0 0.0
2015-Mar-01 16:31N 34°41' E 135°11'0 0.0
2015-Mar-01 15:31N 34°41' E 135°11'0 0.0
2015-Mar-01 14:31N 34°41' E 135°11'0 0.0
2015-Mar-01 13:31N 34°41' E 135°11'0 0.0
2015-Mar-01 12:31N 34°41' E 135°11'6 5.9
2015-Mar-01 11:33N 34°36' E 135°07'1 1.1
2015-Mar-01 10:34N 34°36' E 135°06'6 6.4
2015-Mar-01 09:33N 34°41' E 135°11'2 1.9
2015-Mar-01 08:34N 34°39' E 135°11'2 2.1
2015-Mar-01 07:33N 34°38' E 135°13'4 3.7
2015-Mar-01 06:33N 34°41' E 135°11'0 0.0
2015-Mar-01 05:33N 34°41' E 135°11'2 2.2
2015-Mar-01 04:33N 34°39' E 135°11'2 2.2
2015-Mar-01 03:33N 34°37' E 135°13'4 3.7
2015-Mar-01 02:32N 34°41' E 135°11'0 0.0
2015-Mar-01 01:26N 34°41' E 135°11'0 0.0
2015-Mar-01 00:32N 34°41' E 135°11'0 0.0
2015-Feb-28 23:26N 34°41' E 135°11'0 0.0
2015-Feb-28 22:32N 34°41' E 135°11'0 0.0
2015-Feb-28 21:32N 34°41' E 135°11'0 0.0
2015-Feb-28 20:32N 34°41' E 135°11'0 0.0
2015-Feb-28 19:32N 34°41' E 135°11'0 0.0
2015-Feb-28 18:32N 34°41' E 135°11'0 0.0
2015-Feb-28 17:32N 34°41' E 135°11'0 0.0
2015-Feb-28 16:32N 34°41' E 135°11'0 0.0
2015-Feb-28 15:32N 34°41' E 135°11'0 0.0
2015-Feb-28 14:32N 34°41' E 135°11'0 0.0
2015-Feb-28 13:32N 34°41' E 135°11'0 0.0
2015-Feb-28 12:32N 34°41' E 135°11'6 6.1
2015-Feb-28 11:33N 34°36' E 135°07'1 1.1
2015-Feb-28 10:33N 34°37' E 135°06'6 5.9
2015-Feb-28 09:32N 34°41' E 135°11'2 1.6
2015-Feb-28 08:33N 34°39' E 135°11'3 2.5
2015-Feb-28 07:33N 34°37' E 135°13'4 3.8
2015-Feb-28 06:33N 34°41' E 135°11'0 0.0
2015-Feb-28 05:33N 34°41' E 135°11'2 2.1
2015-Feb-28 04:33N 34°39' E 135°11'2 2.1
2015-Feb-28 03:33N 34°37' E 135°13'4 3.7
2015-Feb-28 02:33N 34°41' E 135°11'0 0.0
2015-Feb-28 01:31N 34°41' E 135°11'0 0.0
2015-Feb-28 00:31N 34°41' E 135°11'0 0.0
2015-Feb-27 23:31N 34°41' E 135°11'0 0.0
2015-Feb-27 22:31N 34°41' E 135°11'0 0.0
2015-Feb-27 21:31N 34°41' E 135°11'0 0.0
2015-Feb-27 20:31N 34°41' E 135°11'0 0.0
2015-Feb-27 19:31N 34°41' E 135°11'0 0.0
2015-Feb-27 18:31N 34°41' E 135°11'0 0.0
2015-Feb-27 17:31N 34°41' E 135°11'0 0.0
2015-Feb-27 16:31N 34°41' E 135°11'0 0.0
2015-Feb-27 15:31N 34°41' E 135°11'0 0.0
2015-Feb-27 14:31N 34°41' E 135°11'0 0.0
2015-Feb-27 13:31N 34°41' E 135°11'0 0.0
2015-Feb-27 12:26N 34°41' E 135°11'6 7.0
2015-Feb-27 11:33N 34°36' E 135°07'1 0.6
2015-Feb-27 10:34N 34°36' E 135°06'6 6.0
2015-Feb-27 09:31N 34°41' E 135°11'5 5.0
2015-Feb-27 08:33N 34°37' E 135°08'5 4.6
2015-Feb-27 07:29N 34°41' E 135°11'0 0.0
2015-Feb-27 06:29N 34°41' E 135°11'0 0.0
2015-Feb-27 05:23N 34°41' E 135°11'2 2.4
2015-Feb-27 04:33N 34°39' E 135°11'3 2.6
2015-Feb-27 03:33N 34°37' E 135°13'4 4.3
2015-Feb-27 02:33N 34°41' E 135°11'0 0.0
2015-Feb-27 01:30N 34°41' E 135°11'0 0.0
2015-Feb-27 00:30N 34°41' E 135°11'0 0.0
2015-Feb-26 23:30N 34°41' E 135°11'0 0.0
2015-Feb-26 22:24N 34°41' E 135°11'0 0.0
2015-Feb-26 21:30N 34°41' E 135°11'0 0.0
2015-Feb-26 20:30N 34°41' E 135°11'0 0.0
2015-Feb-26 19:30N 34°41' E 135°11'0 0.0
2015-Feb-26 18:30N 34°41' E 135°11'0 0.0
2015-Feb-26 17:30N 34°41' E 135°11'0 0.0
2015-Feb-26 16:30N 34°41' E 135°11'0 0.0
2015-Feb-26 15:30N 34°41' E 135°11'0 0.0
2015-Feb-26 14:24N 34°41' E 135°11'0 0.0
2015-Feb-26 13:30N 34°41' E 135°11'0 0.0
2015-Feb-26 12:30N 34°41' E 135°11'6 6.5
2015-Feb-26 11:33N 34°36' E 135°07'1 0.9
2015-Feb-26 10:33N 34°37' E 135°06'6 4.7
2015-Feb-26 09:17N 34°41' E 135°11'0 0.0
2015-Feb-26 08:33N 34°41' E 135°11'4 4.4
2015-Feb-26 07:33N 34°38' E 135°08'4 4.2
2015-Feb-26 06:30N 34°41' E 135°11'0 0.0
2015-Feb-26 05:30N 34°41' E 135°11'2 2.3
2015-Feb-26 04:33N 34°39' E 135°11'2 1.6
2015-Feb-26 03:33N 34°37' E 135°12'3 3.5
2015-Feb-26 02:33N 34°41' E 135°11'0 0.0
2015-Feb-26 01:22N 34°41' E 135°11'0 0.0
2015-Feb-26 00:28N 34°41' E 135°11'0 0.0
2015-Feb-25 23:22N 34°41' E 135°11'0 0.0
2015-Feb-25 22:28N 34°41' E 135°11'0 0.0
2015-Feb-25 21:28N 34°41' E 135°11'0 0.0
2015-Feb-25 20:28N 34°41' E 135°11'0 0.0
2015-Feb-25 19:28N 34°41' E 135°11'0 0.0
2015-Feb-25 18:28N 34°41' E 135°11'0 0.0
2015-Feb-25 17:22N 34°41' E 135°11'0 0.0
2015-Feb-25 16:28N 34°41' E 135°11'0 0.0
2015-Feb-25 15:28N 34°41' E 135°11'0 0.0
2015-Feb-25 14:28N 34°41' E 135°11'0 0.0
2015-Feb-25 13:28N 34°41' E 135°11'0 0.0
2015-Feb-25 12:28N 34°41' E 135°11'7 7.2
2015-Feb-25 11:33N 34°36' E 135°07'1 0.7
2015-Feb-25 10:33N 34°36' E 135°06'6 6.0
2015-Feb-25 09:33N 34°41' E 135°11'0 0.0
2015-Feb-25 08:33N 34°41' E 135°11'5 4.6
2015-Feb-25 07:33N 34°38' E 135°08'5 4.3
2015-Feb-25 06:30N 34°41' E 135°11'0 0.0
2015-Feb-25 05:30N 34°41' E 135°11'2 2.2
2015-Feb-25 04:34N 34°39' E 135°11'2 2.1
2015-Feb-25 03:33N 34°38' E 135°13'4 2.8
2015-Feb-25 02:17N 34°41' E 135°11'0 0.0
2015-Feb-25 01:29N 34°41' E 135°11'0 0.0
2015-Feb-25 00:29N 34°41' E 135°11'  

Dump ship's entire track history